sensor_id;sensor_type;location;lat;lon;timestamp;pressure;altitude;pressure_sealevel;temperature;humidity
16255;BME280;8235;52.198;9.904;2023-06-05T00:00:01;101435.97;;;14.87;60.64
16255;BME280;8235;52.198;9.904;2023-06-05T00:02:27;101433.75;;;14.81;60.60
16255;BME280;8235;52.198;9.904;2023-06-05T00:04:54;101435.88;;;14.76;60.81
16255;BME280;8235;52.198;9.904;2023-06-05T00:07:20;101439.81;;;14.70;60.87
16255;BME280;8235;52.198;9.904;2023-06-05T00:09:48;101442.84;;;14.66;61.08
16255;BME280;8235;52.198;9.904;2023-06-05T00:12:15;101444.00;;;14.62;61.10
16255;BME280;8235;52.198;9.904;2023-06-05T00:14:42;101433.47;;;14.58;61.51
16255;BME280;8235;52.198;9.904;2023-06-05T00:17:09;101444.50;;;14.54;61.24
16255;BME280;8235;52.198;9.904;2023-06-05T00:19:35;101432.28;;;14.50;61.28
16255;BME280;8235;52.198;9.904;2023-06-05T00:22:02;101435.19;;;14.47;61.34
16255;BME280;8235;52.198;9.904;2023-06-05T00:24:28;101435.38;;;14.44;61.98
16255;BME280;8235;52.198;9.904;2023-06-05T00:26:56;101432.09;;;14.39;61.52
16255;BME280;8235;52.198;9.904;2023-06-05T00:29:22;101431.53;;;14.34;62.08
16255;BME280;8235;52.198;9.904;2023-06-05T00:31:49;101435.50;;;14.28;62.00
16255;BME280;8235;52.198;9.904;2023-06-05T00:34:15;101433.22;;;14.22;62.60
16255;BME280;8235;52.198;9.904;2023-06-05T00:36:42;101437.06;;;14.18;62.22
16255;BME280;8235;52.198;9.904;2023-06-05T00:39:08;101429.34;;;14.13;62.84
16255;BME280;8235;52.198;9.904;2023-06-05T00:41:35;101429.53;;;14.10;62.69
16255;BME280;8235;52.198;9.904;2023-06-05T00:44:04;101428.22;;;14.03;63.12
16255;BME280;8235;52.198;9.904;2023-06-05T00:46:30;101436.53;;;13.99;63.12
16255;BME280;8235;52.198;9.904;2023-06-05T00:48:57;101425.28;;;13.94;63.20
16255;BME280;8235;52.198;9.904;2023-06-05T00:51:24;101432.75;;;13.88;63.62
16255;BME280;8235;52.198;9.904;2023-06-05T00:53:50;101433.03;;;13.84;63.64
16255;BME280;8235;52.198;9.904;2023-06-05T00:56:17;101432.50;;;13.79;64.02
16255;BME280;8235;52.198;9.904;2023-06-05T00:58:46;101429.25;;;13.74;64.27
16255;BME280;8235;52.198;9.904;2023-06-05T01:01:14;101426.88;;;13.69;64.42
16255;BME280;8235;52.198;9.904;2023-06-05T01:03:42;101419.13;;;13.65;64.72
16255;BME280;8235;52.198;9.904;2023-06-05T01:06:10;101420.28;;;13.61;65.04
16255;BME280;8235;52.198;9.904;2023-06-05T01:08:37;101418.66;;;13.58;65.32
16255;BME280;8235;52.198;9.904;2023-06-05T01:11:13;101425.06;;;13.55;65.46
16255;BME280;8235;52.198;9.904;2023-06-05T01:13:46;101425.34;;;13.51;65.34
16255;BME280;8235;52.198;9.904;2023-06-05T01:16:18;101422.09;;;13.46;65.75
16255;BME280;8235;52.198;9.904;2023-06-05T01:18:45;101427.66;;;13.43;65.68
16255;BME280;8235;52.198;9.904;2023-06-05T01:21:12;101424.31;;;13.39;65.99
16255;BME280;8235;52.198;9.904;2023-06-05T01:23:43;101429.09;;;13.34;66.13
16255;BME280;8235;52.198;9.904;2023-06-05T01:26:16;101423.94;;;13.31;66.49
16255;BME280;8235;52.198;9.904;2023-06-05T01:28:47;101435.69;;;13.29;66.61
16255;BME280;8235;52.198;9.904;2023-06-05T01:31:16;101424.41;;;13.24;66.61
16255;BME280;8235;52.198;9.904;2023-06-05T01:33:49;101425.66;;;13.18;66.63
16255;BME280;8235;52.198;9.904;2023-06-05T01:36:17;101425.03;;;13.13;66.90
16255;BME280;8235;52.198;9.904;2023-06-05T01:38:48;101427.97;;;13.08;67.12
16255;BME280;8235;52.198;9.904;2023-06-05T01:41:16;101422.94;;;13.04;67.51
16255;BME280;8235;52.198;9.904;2023-06-05T01:43:45;101424.94;;;13.00;67.62
16255;BME280;8235;52.198;9.904;2023-06-05T01:46:14;101419.88;;;12.96;67.99
16255;BME280;8235;52.198;9.904;2023-06-05T01:48:41;101433.41;;;12.93;68.36
16255;BME280;8235;52.198;9.904;2023-06-05T01:51:08;101424.75;;;12.89;68.54
16255;BME280;8235;52.198;9.904;2023-06-05T01:53:35;101417.84;;;12.85;68.78
16255;BME280;8235;52.198;9.904;2023-06-05T01:56:03;101424.34;;;12.81;68.78
16255;BME280;8235;52.198;9.904;2023-06-05T01:58:32;101421.06;;;12.76;69.12
16255;BME280;8235;52.198;9.904;2023-06-05T02:00:58;101419.56;;;12.72;68.99
16255;BME280;8235;52.198;9.904;2023-06-05T02:03:25;101426.03;;;12.68;69.32
16255;BME280;8235;52.198;9.904;2023-06-05T02:05:52;101420.84;;;12.65;69.54
16255;BME280;8235;52.198;9.904;2023-06-05T02:08:19;101420.25;;;12.60;69.87
16255;BME280;8235;52.198;9.904;2023-06-05T02:10:48;101420.44;;;12.57;70.07
16255;BME280;8235;52.198;9.904;2023-06-05T02:13:16;101428.66;;;12.54;70.47
16255;BME280;8235;52.198;9.904;2023-06-05T02:15:44;101420.81;;;12.50;70.46
16255;BME280;8235;52.198;9.904;2023-06-05T02:18:11;101425.41;;;12.48;70.81
16255;BME280;8235;52.198;9.904;2023-06-05T02:20:40;101418.41;;;12.46;70.96
16255;BME280;8235;52.198;9.904;2023-06-05T02:23:06;101415.06;;;12.42;71.37
16255;BME280;8235;52.198;9.904;2023-06-05T02:25:34;101408.94;;;12.40;71.18
16255;BME280;8235;52.198;9.904;2023-06-05T02:28:00;101412.84;;;12.35;71.30
16255;BME280;8235;52.198;9.904;2023-06-05T02:30:28;101417.34;;;12.34;71.63
16255;BME280;8235;52.198;9.904;2023-06-05T02:32:54;101412.16;;;12.31;71.66
16255;BME280;8235;52.198;9.904;2023-06-05T02:35:26;101403.38;;;12.29;71.91
16255;BME280;8235;52.198;9.904;2023-06-05T02:37:52;101407.19;;;12.25;71.82
16255;BME280;8235;52.198;9.904;2023-06-05T02:40:19;101402.00;;;12.22;72.23
16255;BME280;8235;52.198;9.904;2023-06-05T02:42:45;101412.78;;;12.21;72.26
16255;BME280;8235;52.198;9.904;2023-06-05T02:45:12;101405.84;;;12.18;72.59
16255;BME280;8235;52.198;9.904;2023-06-05T02:47:40;101407.72;;;12.16;72.77
16255;BME280;8235;52.198;9.904;2023-06-05T02:50:07;101409.69;;;12.12;72.87
16255;BME280;8235;52.198;9.904;2023-06-05T02:52:33;101407.22;;;12.09;73.00
16255;BME280;8235;52.198;9.904;2023-06-05T02:55:00;101412.63;;;12.08;73.20
16255;BME280;8235;52.198;9.904;2023-06-05T02:57:27;101406.50;;;12.06;73.20
16255;BME280;8235;52.198;9.904;2023-06-05T02:59:54;101408.50;;;12.02;73.08
16255;BME280;8235;52.198;9.904;2023-06-05T03:02:20;101404.22;;;12.00;73.46
16255;BME280;8235;52.198;9.904;2023-06-05T03:04:48;101404.38;;;11.97;73.42
16255;BME280;8235;52.198;9.904;2023-06-05T03:07:18;101408.94;;;11.95;73.67
16255;BME280;8235;52.198;9.904;2023-06-05T03:09:45;101416.19;;;11.93;73.88
16255;BME280;8235;52.198;9.904;2023-06-05T03:12:11;101411.00;;;11.90;74.00
16255;BME280;8235;52.198;9.904;2023-06-05T03:14:38;101411.09;;;11.88;74.09
16255;BME280;8235;52.198;9.904;2023-06-05T03:17:04;101406.00;;;11.83;74.31
16255;BME280;8235;52.198;9.904;2023-06-05T03:19:31;101401.81;;;11.79;74.58
16255;BME280;8235;52.198;9.904;2023-06-05T03:21:58;101401.97;;;11.76;74.80
16255;BME280;8235;52.198;9.904;2023-06-05T03:24:25;101398.44;;;11.76;74.92
16255;BME280;8235;52.198;9.904;2023-06-05T03:26:52;101401.19;;;11.74;75.09
16255;BME280;8235;52.198;9.904;2023-06-05T03:29:19;101396.00;;;11.71;75.40
16255;BME280;8235;52.198;9.904;2023-06-05T03:31:45;101396.88;;;11.72;75.46
16255;BME280;8235;52.198;9.904;2023-06-05T03:34:12;101390.66;;;11.71;75.63
16255;BME280;8235;52.198;9.904;2023-06-05T03:36:38;101396.00;;;11.71;75.64
16255;BME280;8235;52.198;9.904;2023-06-05T03:39:07;101397.88;;;11.69;75.86
16255;BME280;8235;52.198;9.904;2023-06-05T03:41:33;101401.50;;;11.68;76.06
16255;BME280;8235;52.198;9.904;2023-06-05T03:44:00;101405.13;;;11.67;76.15
16255;BME280;8235;52.198;9.904;2023-06-05T03:46:29;101400.72;;;11.66;76.43
16255;BME280;8235;52.198;9.904;2023-06-05T03:48:55;101398.91;;;11.67;76.35
16255;BME280;8235;52.198;9.904;2023-06-05T03:51:24;101407.88;;;11.66;76.46
16255;BME280;8235;52.198;9.904;2023-06-05T03:53:55;101406.16;;;11.65;76.63
16255;BME280;8235;52.198;9.904;2023-06-05T03:56:24;101399.00;;;11.65;76.68
16255;BME280;8235;52.198;9.904;2023-06-05T03:58:54;101404.47;;;11.64;76.62
16255;BME280;8235;52.198;9.904;2023-06-05T04:01:21;101405.41;;;11.63;76.99
16255;BME280;8235;52.198;9.904;2023-06-05T04:03:47;101411.75;;;11.60;77.03
16255;BME280;8235;52.198;9.904;2023-06-05T04:06:14;101407.38;;;11.59;77.36
16255;BME280;8235;52.198;9.904;2023-06-05T04:08:40;101404.78;;;11.58;77.61
16255;BME280;8235;52.198;9.904;2023-06-05T04:11:07;101402.13;;;11.58;77.93
16255;BME280;8235;52.198;9.904;2023-06-05T04:13:34;101399.53;;;11.56;78.08
16255;BME280;8235;52.198;9.904;2023-06-05T04:16:01;101400.31;;;11.58;78.22
16255;BME280;8235;52.198;9.904;2023-06-05T04:18:28;101403.91;;;11.57;78.28
16255;BME280;8235;52.198;9.904;2023-06-05T04:20:54;101398.59;;;11.57;78.37
16255;BME280;8235;52.198;9.904;2023-06-05T04:23:21;101408.41;;;11.57;78.54
16255;BME280;8235;52.198;9.904;2023-06-05T04:25:48;101410.13;;;11.58;78.79
16255;BME280;8235;52.198;9.904;2023-06-05T04:28:15;101408.41;;;11.57;78.89
16255;BME280;8235;52.198;9.904;2023-06-05T04:30:43;101417.25;;;11.57;79.25
16255;BME280;8235;52.198;9.904;2023-06-05T04:33:10;101410.97;;;11.58;79.35
16255;BME280;8235;52.198;9.904;2023-06-05T04:35:37;101402.97;;;11.58;79.55
16255;BME280;8235;52.198;9.904;2023-06-05T04:38:04;101414.50;;;11.59;80.01
16255;BME280;8235;52.198;9.904;2023-06-05T04:40:30;101410.97;;;11.58;79.88
16255;BME280;8235;52.198;9.904;2023-06-05T04:42:57;101414.50;;;11.59;79.87
16255;BME280;8235;52.198;9.904;2023-06-05T04:45:24;101409.25;;;11.57;79.98
16255;BME280;8235;52.198;9.904;2023-06-05T04:47:52;101408.22;;;11.60;80.24
16255;BME280;8235;52.198;9.904;2023-06-05T04:50:23;101413.50;;;11.61;80.31
16255;BME280;8235;52.198;9.904;2023-06-05T04:52:52;101412.53;;;11.62;80.39
16255;BME280;8235;52.198;9.904;2023-06-05T04:55:19;101410.66;;;11.64;80.34
16255;BME280;8235;52.198;9.904;2023-06-05T04:57:46;101417.69;;;11.65;80.44
16255;BME280;8235;52.198;9.904;2023-06-05T05:00:14;101416.66;;;11.68;80.60
16255;BME280;8235;52.198;9.904;2023-06-05T05:02:40;101413.91;;;11.69;80.67
16255;BME280;8235;52.198;9.904;2023-06-05T05:05:09;101412.00;;;11.71;80.90
16255;BME280;8235;52.198;9.904;2023-06-05T05:07:40;101415.47;;;11.73;80.86
16255;BME280;8235;52.198;9.904;2023-06-05T05:10:07;101408.22;;;11.75;80.68
16255;BME280;8235;52.198;9.904;2023-06-05T05:12:34;101402.75;;;11.78;80.67
16255;BME280;8235;52.198;9.904;2023-06-05T05:15:02;101406.97;;;11.82;81.11
16255;BME280;8235;52.198;9.904;2023-06-05T05:17:29;101404.97;;;11.86;80.94
16255;BME280;8235;52.198;9.904;2023-06-05T05:19:55;101404.81;;;11.89;80.88
16255;BME280;8235;52.198;9.904;2023-06-05T05:22:23;101407.22;;;11.94;80.88
16255;BME280;8235;52.198;9.904;2023-06-05T05:24:50;101409.72;;;11.97;80.83
16255;BME280;8235;52.198;9.904;2023-06-05T05:27:16;101411.25;;;12.01;81.04
16255;BME280;8235;52.198;9.904;2023-06-05T05:29:43;101408.31;;;12.05;80.98
16255;BME280;8235;52.198;9.904;2023-06-05T05:32:09;101414.97;;;12.14;81.09
16255;BME280;8235;52.198;9.904;2023-06-05T05:34:36;101417.25;;;12.20;81.33
16255;BME280;8235;52.198;9.904;2023-06-05T05:37:03;101416.81;;;12.28;81.13
16255;BME280;8235;52.198;9.904;2023-06-05T05:39:31;101420.66;;;12.38;81.40
16255;BME280;8235;52.198;9.904;2023-06-05T05:41:57;101416.44;;;12.49;81.23
16255;BME280;8235;52.198;9.904;2023-06-05T05:44:25;101421.31;;;12.57;81.25
16255;BME280;8235;52.198;9.904;2023-06-05T05:46:51;101411.81;;;12.67;80.99
16255;BME280;8235;52.198;9.904;2023-06-05T05:49:17;101421.66;;;12.81;81.06
16255;BME280;8235;52.198;9.904;2023-06-05T05:51:44;101418.22;;;12.93;80.40
16255;BME280;8235;52.198;9.904;2023-06-05T05:54:10;101412.06;;;13.07;79.92
16255;BME280;8235;52.198;9.904;2023-06-05T05:56:38;101417.53;;;13.19;79.48
16255;BME280;8235;52.198;9.904;2023-06-05T05:59:05;101413.91;;;13.35;79.33
16255;BME280;8235;52.198;9.904;2023-06-05T06:01:31;101419.13;;;13.50;79.02
16255;BME280;8235;52.198;9.904;2023-06-05T06:03:58;101421.69;;;13.66;78.64
16255;BME280;8235;52.198;9.904;2023-06-05T06:06:25;101421.47;;;13.83;77.60
16255;BME280;8235;52.198;9.904;2023-06-05T06:08:51;101428.50;;;13.99;77.49
16255;BME280;8235;52.198;9.904;2023-06-05T06:11:18;101438.00;;;14.17;77.11
16255;BME280;8235;52.198;9.904;2023-06-05T06:13:46;101427.03;;;14.34;76.25
16255;BME280;8235;52.198;9.904;2023-06-05T06:16:14;101424.34;;;14.48;75.47
16255;BME280;8235;52.198;9.904;2023-06-05T06:18:40;101420.53;;;14.65;75.13
16255;BME280;8235;52.198;9.904;2023-06-05T06:21:06;101431.16;;;14.79;73.73
16255;BME280;8235;52.198;9.904;2023-06-05T06:23:33;101416.91;;;14.91;73.26
16255;BME280;8235;52.198;9.904;2023-06-05T06:25:59;101424.97;;;15.04;72.89
16255;BME280;8235;52.198;9.904;2023-06-05T06:28:26;101424.84;;;15.18;72.06
16255;BME280;8235;52.198;9.904;2023-06-05T06:30:54;101426.88;;;15.27;71.10
16255;BME280;8235;52.198;9.904;2023-06-05T06:33:20;101426.03;;;15.40;70.12
16255;BME280;8235;52.198;9.904;2023-06-05T06:35:48;101419.25;;;15.47;69.52
16255;BME280;8235;52.198;9.904;2023-06-05T06:38:14;101429.25;;;15.57;69.48
16255;BME280;8235;52.198;9.904;2023-06-05T06:40:42;101422.88;;;15.71;69.21
16255;BME280;8235;52.198;9.904;2023-06-05T06:43:08;101425.41;;;15.85;68.92
16255;BME280;8235;52.198;9.904;2023-06-05T06:45:34;101430.63;;;16.00;68.56
16255;BME280;8235;52.198;9.904;2023-06-05T06:48:02;101422.28;;;16.15;68.39
16255;BME280;8235;52.198;9.904;2023-06-05T06:50:29;101426.41;;;16.32;67.51
16255;BME280;8235;52.198;9.904;2023-06-05T06:52:55;101437.97;;;16.45;66.59
16255;BME280;8235;52.198;9.904;2023-06-05T06:55:22;101430.69;;;16.58;66.62
16255;BME280;8235;52.198;9.904;2023-06-05T06:57:49;101434.91;;;16.74;65.80
16255;BME280;8235;52.198;9.904;2023-06-05T07:00:15;101432.13;;;16.86;65.13
16255;BME280;8235;52.198;9.904;2023-06-05T07:02:42;101434.75;;;16.99;64.44
16255;BME280;8235;52.198;9.904;2023-06-05T07:05:10;101427.19;;;17.15;64.62
16255;BME280;8235;52.198;9.904;2023-06-05T07:07:36;101429.66;;;17.29;63.26
16255;BME280;8235;52.198;9.904;2023-06-05T07:10:03;101429.91;;;17.38;62.99
16255;BME280;8235;52.198;9.904;2023-06-05T07:12:30;101421.69;;;17.50;62.82
16255;BME280;8235;52.198;9.904;2023-06-05T07:14:56;101428.03;;;17.60;61.75
16255;BME280;8235;52.198;9.904;2023-06-05T07:17:23;101427.09;;;17.73;60.83
16255;BME280;8235;52.198;9.904;2023-06-05T07:19:49;101416.44;;;17.82;60.48
16255;BME280;8235;52.198;9.904;2023-06-05T07:22:17;101420.69;;;17.96;60.25
16255;BME280;8235;52.198;9.904;2023-06-05T07:24:43;101418.84;;;18.08;59.52
16255;BME280;8235;52.198;9.904;2023-06-05T07:27:10;101425.16;;;18.18;58.89
16255;BME280;8235;52.198;9.904;2023-06-05T07:29:37;101421.97;;;18.24;58.61
16255;BME280;8235;52.198;9.904;2023-06-05T07:32:04;101422.66;;;18.37;59.28
16255;BME280;8235;52.198;9.904;2023-06-05T07:34:31;101416.47;;;18.46;58.46
16255;BME280;8235;52.198;9.904;2023-06-05T07:36:58;101423.53;;;18.58;58.40
16255;BME280;8235;52.198;9.904;2023-06-05T07:39:27;101423.25;;;18.72;58.25
16255;BME280;8235;52.198;9.904;2023-06-05T07:41:54;101422.91;;;18.87;57.74
16255;BME280;8235;52.198;9.904;2023-06-05T07:44:21;101421.47;;;19.03;58.02
16255;BME280;8235;52.198;9.904;2023-06-05T07:46:48;101414.59;;;19.20;57.48
16255;BME280;8235;52.198;9.904;2023-06-05T07:49:15;101417.22;;;19.31;57.00
16255;BME280;8235;52.198;9.904;2023-06-05T07:51:42;101418.56;;;19.47;56.89
16255;BME280;8235;52.198;9.904;2023-06-05T07:54:10;101422.78;;;19.60;56.31
16255;BME280;8235;52.198;9.904;2023-06-05T07:56:38;101421.53;;;19.74;55.18
16255;BME280;8235;52.198;9.904;2023-06-05T07:59:06;101419.72;;;19.84;54.10
16255;BME280;8235;52.198;9.904;2023-06-05T08:01:34;101418.47;;;19.98;53.60
16255;BME280;8235;52.198;9.904;2023-06-05T08:04:01;101418.91;;;20.13;53.72
16255;BME280;8235;52.198;9.904;2023-06-05T08:06:28;101414.09;;;20.26;52.63
16255;BME280;8235;52.198;9.904;2023-06-05T08:08:55;101419.53;;;20.35;51.70
16255;BME280;8235;52.198;9.904;2023-06-05T08:11:21;101409.72;;;20.44;51.70
16255;BME280;8235;52.198;9.904;2023-06-05T08:13:49;101409.72;;;20.54;51.45
16255;BME280;8235;52.198;9.904;2023-06-05T08:16:15;101409.28;;;20.68;51.52
16255;BME280;8235;52.198;9.904;2023-06-05T08:18:42;101415.56;;;20.78;50.70
16255;BME280;8235;52.198;9.904;2023-06-05T08:21:09;101409.97;;;20.89;50.38
16255;BME280;8235;52.198;9.904;2023-06-05T08:23:36;101407.22;;;20.99;50.17
16255;BME280;8235;52.198;9.904;2023-06-05T08:26:03;101404.22;;;21.11;50.39
16255;BME280;8235;52.198;9.904;2023-06-05T08:28:37;101403.63;;;21.27;50.71
16255;BME280;8235;52.198;9.904;2023-06-05T08:31:04;101397.16;;;21.38;49.54
16255;BME280;8235;52.198;9.904;2023-06-05T08:33:32;101391.00;;;21.45;49.59
16255;BME280;8235;52.198;9.904;2023-06-05T08:35:58;101390.38;;;21.61;49.55
16255;BME280;8235;52.198;9.904;2023-06-05T08:38:25;101382.56;;;21.76;48.67
16255;BME280;8235;52.198;9.904;2023-06-05T08:40:55;101390.34;;;21.89;47.38
16255;BME280;8235;52.198;9.904;2023-06-05T08:43:23;101380.44;;;21.97;46.81
16255;BME280;8235;52.198;9.904;2023-06-05T08:45:51;101369.69;;;22.05;46.46
16255;BME280;8235;52.198;9.904;2023-06-05T08:48:20;101374.91;;;22.16;47.06
16255;BME280;8235;52.198;9.904;2023-06-05T08:50:47;101369.78;;;22.31;46.70
16255;BME280;8235;52.198;9.904;2023-06-05T08:53:16;101371.78;;;22.47;46.25
16255;BME280;8235;52.198;9.904;2023-06-05T08:55:43;101373.56;;;22.56;45.60
16255;BME280;8235;52.198;9.904;2023-06-05T08:58:12;101364.47;;;22.65;45.30
16255;BME280;8235;52.198;9.904;2023-06-05T09:00:39;101366.06;;;22.76;44.45
16255;BME280;8235;52.198;9.904;2023-06-05T09:03:06;101359.88;;;22.83;44.51
16255;BME280;8235;52.198;9.904;2023-06-05T09:05:34;101365.69;;;22.89;44.80
16255;BME280;8235;52.198;9.904;2023-06-05T09:08:01;101364.88;;;22.96;44.68
16255;BME280;8235;52.198;9.904;2023-06-05T09:10:28;101360.16;;;22.98;43.35
16255;BME280;8235;52.198;9.904;2023-06-05T09:12:57;101365.56;;;22.98;43.22
16255;BME280;8235;52.198;9.904;2023-06-05T09:15:25;101364.25;;;23.02;43.10
16255;BME280;8235;52.198;9.904;2023-06-05T09:18:07;101370.78;;;23.17;43.17
16255;BME280;8235;52.198;9.904;2023-06-05T09:20:37;101370.34;;;23.30;42.93
16255;BME280;8235;52.198;9.904;2023-06-05T09:23:05;101365.66;;;23.40;42.62
16255;BME280;8235;52.198;9.904;2023-06-05T09:25:47;101363.78;;;23.49;42.75
16255;BME280;8235;52.198;9.904;2023-06-05T09:28:14;101351.13;;;23.58;42.96
16255;BME280;8235;52.198;9.904;2023-06-05T09:30:55;101362.88;;;23.66;42.18
16255;BME280;8235;52.198;9.904;2023-06-05T09:33:22;101354.38;;;23.69;41.24
16255;BME280;8235;52.198;9.904;2023-06-05T09:36:06;101363.06;;;23.73;41.18
16255;BME280;8235;52.198;9.904;2023-06-05T09:38:33;101357.69;;;23.81;41.27
16255;BME280;8235;52.198;9.904;2023-06-05T09:41:04;101365.00;;;23.88;41.41
16255;BME280;8235;52.198;9.904;2023-06-05T09:43:31;101360.06;;;23.92;39.86
16255;BME280;8235;52.198;9.904;2023-06-05T09:45:58;101363.97;;;23.89;38.84
16255;BME280;8235;52.198;9.904;2023-06-05T09:48:24;101354.28;;;23.87;39.23
16255;BME280;8235;52.198;9.904;2023-06-05T09:50:52;101352.59;;;23.94;40.21
16255;BME280;8235;52.198;9.904;2023-06-05T09:53:21;101350.41;;;24.06;40.84
16255;BME280;8235;52.198;9.904;2023-06-05T09:55:48;101344.13;;;24.21;40.71
16255;BME280;8235;52.198;9.904;2023-06-05T09:58:15;101348.44;;;24.32;39.83
16255;BME280;8235;52.198;9.904;2023-06-05T10:00:44;101350.63;;;24.45;39.36
16255;BME280;8235;52.198;9.904;2023-06-05T10:03:14;101341.78;;;24.59;39.35
16255;BME280;8235;52.198;9.904;2023-06-05T10:05:43;101343.13;;;24.63;38.87
16255;BME280;8235;52.198;9.904;2023-06-05T10:08:11;101340.03;;;24.74;39.12
16255;BME280;8235;52.198;9.904;2023-06-05T10:10:40;101337.31;;;24.82;38.95
16255;BME280;8235;52.198;9.904;2023-06-05T10:13:08;101338.34;;;24.89;37.06
16255;BME280;8235;52.198;9.904;2023-06-05T10:15:36;101336.25;;;24.91;35.82
16255;BME280;8235;52.198;9.904;2023-06-05T10:18:04;101328.78;;;24.93;35.47
16255;BME280;8235;52.198;9.904;2023-06-05T10:20:32;101331.34;;;24.95;35.88
16255;BME280;8235;52.198;9.904;2023-06-05T10:23:01;101325.38;;;24.91;35.71
16255;BME280;8235;52.198;9.904;2023-06-05T10:25:28;101314.66;;;24.98;35.44
16255;BME280;8235;52.198;9.904;2023-06-05T10:28:05;101318.22;;;25.07;35.89
16255;BME280;8235;52.198;9.904;2023-06-05T10:30:56;101308.97;;;25.16;35.95
16255;BME280;8235;52.198;9.904;2023-06-05T10:33:48;101301.81;;;25.23;34.42
16255;BME280;8235;52.198;9.904;2023-06-05T10:36:31;101304.66;;;25.30;34.44
16255;BME280;8235;52.198;9.904;2023-06-05T10:39:06;101303.78;;;25.37;33.39
16255;BME280;8235;52.198;9.904;2023-06-05T10:41:32;101309.19;;;25.45;32.71
16255;BME280;8235;52.198;9.904;2023-06-05T10:44:00;101300.31;;;25.51;32.31
16255;BME280;8235;52.198;9.904;2023-06-05T10:46:32;101303.84;;;25.60;32.80
16255;BME280;8235;52.198;9.904;2023-06-05T10:49:09;101300.25;;;25.68;32.50
16255;BME280;8235;52.198;9.904;2023-06-05T10:51:38;101303.78;;;25.76;31.59
16255;BME280;8235;52.198;9.904;2023-06-05T10:54:06;101299.94;;;25.85;31.60
16255;BME280;8235;52.198;9.904;2023-06-05T10:56:55;101307.06;;;25.94;31.43
16255;BME280;8235;52.198;9.904;2023-06-05T10:59:25;101297.84;;;25.96;29.71
16255;BME280;8235;52.198;9.904;2023-06-05T11:02:26;101293.72;;;26.00;30.26
16255;BME280;8235;52.198;9.904;2023-06-05T11:05:13;101296.38;;;26.08;30.09
16255;BME280;8235;52.198;9.904;2023-06-05T11:07:42;101291.25;;;26.13;29.96
16255;BME280;8235;52.198;9.904;2023-06-05T11:10:12;101286.91;;;26.18;29.58
16255;BME280;8235;52.198;9.904;2023-06-05T11:12:59;101279.03;;;26.23;29.79
16255;BME280;8235;52.198;9.904;2023-06-05T11:15:41;101274.56;;;26.31;29.56
16255;BME280;8235;52.198;9.904;2023-06-05T11:18:33;101284.63;;;26.30;29.18
16255;BME280;8235;52.198;9.904;2023-06-05T11:21:00;101276.25;;;26.32;28.52
16255;BME280;8235;52.198;9.904;2023-06-05T11:23:27;101267.03;;;26.33;28.39
16255;BME280;8235;52.198;9.904;2023-06-05T11:25:55;101259.03;;;26.31;27.39
16255;BME280;8235;52.198;9.904;2023-06-05T11:28:40;101269.28;;;26.29;28.02
16255;BME280;8235;52.198;9.904;2023-06-05T11:31:08;101268.25;;;26.30;28.33
16255;BME280;8235;52.198;9.904;2023-06-05T11:33:35;101262.22;;;26.35;28.12
16255;BME280;8235;52.198;9.904;2023-06-05T11:36:04;101266.59;;;26.44;27.81
16255;BME280;8235;52.198;9.904;2023-06-05T11:38:32;101264.53;;;26.46;27.28
16255;BME280;8235;52.198;9.904;2023-06-05T11:40:59;101255.09;;;26.48;27.02
16255;BME280;8235;52.198;9.904;2023-06-05T11:43:26;101262.34;;;26.56;27.91
16255;BME280;8235;52.198;9.904;2023-06-05T11:45:53;101261.25;;;26.65;27.86
16255;BME280;8235;52.198;9.904;2023-06-05T11:48:21;101265.69;;;26.66;27.05
16255;BME280;8235;52.198;9.904;2023-06-05T11:50:53;101259.63;;;26.71;27.62
16255;BME280;8235;52.198;9.904;2023-06-05T11:53:20;101254.28;;;26.77;26.78
16255;BME280;8235;52.198;9.904;2023-06-05T11:55:47;101257.66;;;26.79;27.00
16255;BME280;8235;52.198;9.904;2023-06-05T11:58:32;101259.47;;;26.87;27.31
16255;BME280;8235;52.198;9.904;2023-06-05T12:01:04;101258.53;;;26.94;27.00
16255;BME280;8235;52.198;9.904;2023-06-05T12:03:32;101253.38;;;27.00;27.04
16255;BME280;8235;52.198;9.904;2023-06-05T12:06:00;101254.28;;;27.07;27.83
16255;BME280;8235;52.198;9.904;2023-06-05T12:08:29;101239.00;;;27.12;27.90
16255;BME280;8235;52.198;9.904;2023-06-05T12:10:59;101242.03;;;27.17;28.11
16255;BME280;8235;52.198;9.904;2023-06-05T12:13:44;101242.69;;;27.19;27.97
16255;BME280;8235;52.198;9.904;2023-06-05T12:16:11;101247.69;;;27.16;27.83
16255;BME280;8235;52.198;9.904;2023-06-05T12:18:39;101245.69;;;27.10;27.28
16255;BME280;8235;52.198;9.904;2023-06-05T12:21:06;101232.41;;;27.07;27.20
16255;BME280;8235;52.198;9.904;2023-06-05T12:23:32;101233.25;;;27.07;27.46
16255;BME280;8235;52.198;9.904;2023-06-05T12:25:59;101236.09;;;27.14;27.69
16255;BME280;8235;52.198;9.904;2023-06-05T12:28:26;101241.47;;;27.22;27.53
16255;BME280;8235;52.198;9.904;2023-06-05T12:30:53;101238.13;;;27.26;26.86
16255;BME280;8235;52.198;9.904;2023-06-05T12:33:19;101234.72;;;27.24;26.26
16255;BME280;8235;52.198;9.904;2023-06-05T12:35:48;101237.69;;;27.23;26.38
16255;BME280;8235;52.198;9.904;2023-06-05T12:38:14;101229.91;;;27.26;27.06
16255;BME280;8235;52.198;9.904;2023-06-05T12:40:44;101235.66;;;27.31;27.16
16255;BME280;8235;52.198;9.904;2023-06-05T12:43:17;101230.28;;;27.38;26.88
16255;BME280;8235;52.198;9.904;2023-06-05T12:45:44;101234.31;;;27.42;25.89
16255;BME280;8235;52.198;9.904;2023-06-05T12:48:10;101218.75;;;27.43;25.32
16255;BME280;8235;52.198;9.904;2023-06-05T12:50:38;101215.25;;;27.49;25.41
16255;BME280;8235;52.198;9.904;2023-06-05T12:53:07;101217.03;;;27.56;25.62
16255;BME280;8235;52.198;9.904;2023-06-05T12:55:34;101210.13;;;27.60;25.85
16255;BME280;8235;52.198;9.904;2023-06-05T12:58:01;101204.09;;;27.65;25.68
16255;BME280;8235;52.198;9.904;2023-06-05T13:00:27;101209.81;;;27.70;25.77
16255;BME280;8235;52.198;9.904;2023-06-05T13:02:53;101220.38;;;27.73;25.41
16255;BME280;8235;52.198;9.904;2023-06-05T13:05:21;101213.88;;;27.74;24.92